createdAt,value
2018-01-20T00:00:37.409Z,4.35
2018-01-20T00:01:37.375Z,4.45
2018-01-20T00:03:30.692Z,4.41
2018-01-20T00:04:30.669Z,4.38
2018-01-20T00:06:23.502Z,4.37
2018-01-20T00:07:23.464Z,4.24
2018-01-20T00:09:16.776Z,4.32
2018-01-20T00:10:17.138Z,4.40
2018-01-20T00:12:09.730Z,4.48
2018-01-20T00:13:09.561Z,4.50
2018-01-20T00:15:02.609Z,4.48
2018-01-20T00:16:02.567Z,4.35
2018-01-20T00:17:55.190Z,4.37
2018-01-20T00:18:55.418Z,4.28
2018-01-20T00:20:47.982Z,4.42
2018-01-20T00:21:47.952Z,4.45
2018-01-20T00:23:40.788Z,4.56
2018-01-20T00:24:40.746Z,4.41
2018-01-20T00:26:33.570Z,4.35
2018-01-20T00:27:33.545Z,4.38
2018-01-20T00:29:26.783Z,4.38
2018-01-20T00:30:26.340Z,4.41
2018-01-20T00:32:19.167Z,4.38
2018-01-20T00:33:19.138Z,4.41
2018-01-20T00:35:12.466Z,4.42
2018-01-20T00:36:12.434Z,4.42
2018-01-20T00:38:05.249Z,4.32
2018-01-20T00:39:05.226Z,4.42
2018-01-20T00:40:58.060Z,4.48
2018-01-20T00:41:58.020Z,4.38
2018-01-20T00:43:50.862Z,4.48
2018-01-20T00:44:50.824Z,4.44
2018-01-20T00:46:44.148Z,4.42
2018-01-20T00:47:44.118Z,4.50
2018-01-20T00:49:37.431Z,4.38
2018-01-20T00:50:37.403Z,4.48
2018-01-20T00:52:30.239Z,4.48
2018-01-20T00:53:30.209Z,4.44
2018-01-20T00:55:23.024Z,4.55
2018-01-20T00:56:22.998Z,4.40
2018-01-20T00:58:15.840Z,4.45
2018-01-20T00:59:15.917Z,4.50
2018-01-20T01:01:08.623Z,4.56
2018-01-20T01:02:08.963Z,4.58
2018-01-20T01:04:01.435Z,4.53
2018-01-20T01:05:01.505Z,4.49
2018-01-20T01:06:54.226Z,4.63
2018-01-20T01:07:54.193Z,4.59
2018-01-20T01:09:47.030Z,4.55
2018-01-20T01:10:46.991Z,4.53
2018-01-20T01:12:39.813Z,4.45
2018-01-20T01:13:39.791Z,4.67
2018-01-20T01:15:32.617Z,4.49
2018-01-20T01:16:32.583Z,4.56
2018-01-20T01:18:25.410Z,4.56
2018-01-20T01:19:25.382Z,4.58
2018-01-20T01:21:18.218Z,4.38
2018-01-20T01:22:18.183Z,4.44
2018-01-20T01:24:11.495Z,4.44
2018-01-20T01:25:11.473Z,4.48
2018-01-20T01:27:04.305Z,4.16
2018-01-20T01:28:04.264Z,4.20
2018-01-20T01:29:57.090Z,4.05
2018-01-20T01:30:57.063Z,3.96
2018-01-20T01:32:49.900Z,3.63
2018-01-20T01:33:49.860Z,3.69
2018-01-20T01:35:42.722Z,3.55
2018-01-20T01:36:42.666Z,3.32
2018-01-20T01:38:35.507Z,3.26
2018-01-20T01:39:35.474Z,3.18
2018-01-20T01:41:28.292Z,3.23
2018-01-20T01:42:28.263Z,3.22
2018-01-20T01:44:21.593Z,3.05
2018-01-20T01:45:21.561Z,2.97
2018-01-20T01:47:14.387Z,2.82
2018-01-20T01:48:14.360Z,2.75
2018-01-20T01:50:07.202Z,2.89
2018-01-20T01:51:07.167Z,2.92
2018-01-20T01:52:59.999Z,2.80
2018-01-20T01:53:59.968Z,2.79
2018-01-20T01:55:52.801Z,2.80
2018-01-20T01:56:52.758Z,2.62
2018-01-20T01:58:45.578Z,2.53
2018-01-20T01:59:45.554Z,2.64
2018-01-20T02:01:38.386Z,2.51
2018-01-20T02:02:38.347Z,2.42
2018-01-20T02:04:31.177Z,2.53
2018-01-20T02:05:31.149Z,2.44
2018-01-20T02:07:23.979Z,2.44
2018-01-20T02:08:23.939Z,2.36
2018-01-20T02:10:16.764Z,2.24
2018-01-20T02:11:16.736Z,2.35
2018-01-20T02:13:09.570Z,2.17
2018-01-20T02:14:09.536Z,2.25
2018-01-20T02:16:02.393Z,2.17
2018-01-20T02:17:02.328Z,2.20
2018-01-20T02:18:55.160Z,2.25
2018-01-20T02:19:55.125Z,2.22
2018-01-20T02:21:47.955Z,2.17
2018-01-20T02:22:47.919Z,2.11
2018-01-20T02:24:40.734Z,2.14
2018-01-20T02:25:40.715Z,1.99
2018-01-20T02:27:33.552Z,1.92
2018-01-20T02:28:33.511Z,2.00
2018-01-20T02:30:26.332Z,2.00
2018-01-20T02:31:26.305Z,2.04
2018-01-20T02:33:19.139Z,2.13
2018-01-20T02:34:19.099Z,2.28
2018-01-20T02:36:11.923Z,2.25
2018-01-20T02:37:11.896Z,2.28
2018-01-20T02:39:04.725Z,2.31
2018-01-20T02:40:04.686Z,2.32
2018-01-20T02:41:57.508Z,2.38
2018-01-20T02:42:57.474Z,2.42
2018-01-20T02:44:50.310Z,2.35
2018-01-20T02:45:50.271Z,2.35
2018-01-20T02:47:43.093Z,2.43
2018-01-20T02:48:43.064Z,2.39
2018-01-20T02:50:35.899Z,2.43
2018-01-20T02:51:35.856Z,2.35
2018-01-20T02:53:28.687Z,2.43
2018-01-20T02:54:28.657Z,2.46
2018-01-20T02:56:21.496Z,2.57
2018-01-20T02:57:21.461Z,2.68
2018-01-20T02:59:14.277Z,2.64
2018-01-20T03:00:14.246Z,2.44
2018-01-20T03:02:07.081Z,2.53
2018-01-20T03:03:07.040Z,2.56
2018-01-20T03:04:59.856Z,2.61
2018-01-20T03:05:59.834Z,2.57
2018-01-20T03:07:53.658Z,2.43
2018-01-20T03:08:53.618Z,2.39
2018-01-20T03:10:46.445Z,2.51
2018-01-20T03:11:46.416Z,2.47
2018-01-20T03:13:39.249Z,2.53
2018-01-20T03:14:39.212Z,2.60
2018-01-20T03:16:32.039Z,2.46
2018-01-20T03:17:32.016Z,2.47
2018-01-20T03:19:24.859Z,2.50
2018-01-20T03:20:24.804Z,2.61
2018-01-20T03:22:17.626Z,2.47
2018-01-20T03:23:17.595Z,2.46
2018-01-20T03:25:10.432Z,2.46
2018-01-20T03:26:10.389Z,2.53
2018-01-20T03:28:03.212Z,2.53
2018-01-20T03:29:03.185Z,2.62
2018-01-20T03:30:56.014Z,2.53
2018-01-20T03:31:55.976Z,2.57
2018-01-20T03:33:48.800Z,2.61
2018-01-20T03:34:48.777Z,2.64
2018-01-20T03:36:41.604Z,2.71
2018-01-20T03:37:41.570Z,2.65
2018-01-20T03:39:34.389Z,2.65
2018-01-20T03:40:34.361Z,2.60
2018-01-20T03:42:27.203Z,2.64
2018-01-20T03:43:27.162Z,2.64
2018-01-20T03:45:19.998Z,2.75
2018-01-20T03:46:19.963Z,2.74
2018-01-20T03:48:12.775Z,2.75
2018-01-20T03:49:12.751Z,2.77
2018-01-20T03:51:05.583Z,2.71
2018-01-20T03:52:05.548Z,2.80
2018-01-20T03:53:58.375Z,2.77
2018-01-20T03:54:58.346Z,2.82
2018-01-20T03:56:51.187Z,2.89
2018-01-20T03:57:51.141Z,2.87
2018-01-20T03:59:43.969Z,2.98
2018-01-20T04:00:43.944Z,2.97
2018-01-20T04:02:36.772Z,2.95
2018-01-20T04:03:36.734Z,3.01
2018-01-20T04:05:29.556Z,2.98
2018-01-20T04:06:29.529Z,3.03
2018-01-20T04:08:22.367Z,3.13
2018-01-20T04:09:22.322Z,3.10
2018-01-20T04:11:15.145Z,3.21
2018-01-20T04:12:15.115Z,3.21
2018-01-20T04:14:07.956Z,3.32
2018-01-20T04:15:07.909Z,3.21
2018-01-20T04:17:00.744Z,3.19
2018-01-20T04:18:00.710Z,3.16
2018-01-20T04:19:53.559Z,3.19
2018-01-20T04:20:53.501Z,3.18
2018-01-20T04:22:46.328Z,3.16
2018-01-20T04:23:46.299Z,3.10
2018-01-20T04:25:39.131Z,3.21
2018-01-20T04:26:39.097Z,3.21
2018-01-20T04:28:31.911Z,3.29
2018-01-20T04:29:31.880Z,3.22
2018-01-20T04:31:24.715Z,3.18
2018-01-20T04:32:24.672Z,3.19
2018-01-20T04:34:17.497Z,3.21
2018-01-20T04:35:17.472Z,3.16
2018-01-20T04:37:10.305Z,3.21
2018-01-20T04:38:10.261Z,3.22
2018-01-20T04:40:03.081Z,3.29
2018-01-20T04:41:03.060Z,3.32
2018-01-20T04:42:55.904Z,3.26
2018-01-20T04:43:55.867Z,3.40
2018-01-20T04:45:48.682Z,3.22
2018-01-20T04:46:48.656Z,3.26
2018-01-20T04:48:41.488Z,3.29
2018-01-20T04:49:41.454Z,3.23
2018-01-20T04:51:34.276Z,3.26
2018-01-20T04:52:34.244Z,3.34
2018-01-20T04:54:27.095Z,3.32
2018-01-20T04:55:27.047Z,3.36
2018-01-20T04:57:19.869Z,3.47
2018-01-20T04:58:19.841Z,3.45
2018-01-20T05:00:12.674Z,3.66
2018-01-20T05:01:12.634Z,3.59
2018-01-20T05:03:05.451Z,3.41
2018-01-20T05:04:05.428Z,3.44
2018-01-20T05:05:58.258Z,3.50
2018-01-20T05:06:58.220Z,3.53
2018-01-20T05:08:51.045Z,3.51
2018-01-20T05:09:51.016Z,3.50
2018-01-20T05:11:43.843Z,3.59
2018-01-20T05:12:43.809Z,3.53
2018-01-20T05:14:36.630Z,3.55
2018-01-20T05:15:36.608Z,3.58
2018-01-20T05:17:29.435Z,3.45
2018-01-20T05:18:29.400Z,3.42
2018-01-20T05:20:22.216Z,3.51
2018-01-20T05:21:22.185Z,3.50
2018-01-20T05:23:15.030Z,3.55
2018-01-20T05:24:14.992Z,3.56
2018-01-20T05:26:07.811Z,3.56
2018-01-20T05:27:07.787Z,3.53
2018-01-20T05:29:00.618Z,3.62
2018-01-20T05:30:00.579Z,3.59
2018-01-20T05:31:53.403Z,3.55
2018-01-20T05:32:53.375Z,3.60
2018-01-20T05:34:46.696Z,3.59
2018-01-20T05:35:46.665Z,3.42
2018-01-20T05:37:39.481Z,3.60
2018-01-20T05:38:39.458Z,3.53
2018-01-20T05:40:32.292Z,3.56
2018-01-20T05:41:32.257Z,3.44
2018-01-20T05:43:25.079Z,3.60
2018-01-20T05:44:25.052Z,3.44
2018-01-20T05:46:17.882Z,3.59
2018-01-20T05:47:17.846Z,3.56
2018-01-20T05:49:10.678Z,3.51
2018-01-20T05:50:10.639Z,3.56
2018-01-20T05:52:03.462Z,3.62
2018-01-20T05:53:03.439Z,3.60
2018-01-20T05:54:56.280Z,3.60
2018-01-20T05:55:56.241Z,3.60
2018-01-20T05:57:49.565Z,3.47
2018-01-20T05:58:49.540Z,3.51
2018-01-20T06:00:42.371Z,3.59
2018-01-20T06:01:42.333Z,3.48
2018-01-20T06:03:35.154Z,3.55
2018-01-20T06:04:35.132Z,3.60
2018-01-20T06:06:27.961Z,3.59
2018-01-20T06:07:27.932Z,3.59
2018-01-20T06:09:20.747Z,3.70
2018-01-20T06:10:20.716Z,3.59
2018-01-20T06:12:13.558Z,3.63
2018-01-20T06:13:13.514Z,3.65
2018-01-20T06:15:06.341Z,3.59
2018-01-20T06:16:06.316Z,3.62
2018-01-20T06:17:59.156Z,3.68
2018-01-20T06:18:59.114Z,3.73
2018-01-20T06:20:51.939Z,3.56
2018-01-20T06:21:51.905Z,3.65
2018-01-20T06:23:44.742Z,3.73
2018-01-20T06:24:44.706Z,3.73
2018-01-20T06:26:37.524Z,3.81
2018-01-20T06:27:37.498Z,3.91
2018-01-20T06:29:30.340Z,3.83
2018-01-20T06:30:30.298Z,3.88
2018-01-20T06:32:23.127Z,3.87
2018-01-20T06:33:23.095Z,3.99
2018-01-20T06:35:15.927Z,3.88
2018-01-20T06:36:15.892Z,3.78
2018-01-20T06:38:08.714Z,3.88
2018-01-20T06:39:08.686Z,3.81
2018-01-20T06:41:01.523Z,3.87
2018-01-20T06:42:01.486Z,3.84
2018-01-20T06:43:54.801Z,4.01
2018-01-20T06:44:54.775Z,3.86
2018-01-20T06:46:47.618Z,3.99
2018-01-20T06:47:47.578Z,3.94
2018-01-20T06:49:40.405Z,3.98
2018-01-20T06:50:40.382Z,3.88
2018-01-20T06:52:33.216Z,4.01
2018-01-20T06:53:33.175Z,4.02
2018-01-20T06:55:25.996Z,3.95
2018-01-20T06:56:25.969Z,3.99
2018-01-20T06:58:18.803Z,3.94
2018-01-20T06:59:18.762Z,3.95
2018-01-20T07:01:11.586Z,3.92
2018-01-20T07:02:11.559Z,3.98
2018-01-20T07:04:04.392Z,4.06
2018-01-20T07:05:04.354Z,4.06
2018-01-20T07:06:57.180Z,4.16
2018-01-20T07:07:57.151Z,4.13
2018-01-20T07:09:50.484Z,4.20
2018-01-20T07:10:50.445Z,4.22
2018-01-20T07:12:43.272Z,4.20
2018-01-20T07:13:43.248Z,4.14
2018-01-20T07:15:36.581Z,4.13
2018-01-20T07:16:36.535Z,4.19
2018-01-20T07:18:29.362Z,4.32
2018-01-20T07:19:29.326Z,4.35
2018-01-20T07:21:22.163Z,4.38
2018-01-20T07:22:22.127Z,4.35
2018-01-20T07:24:15.009Z,4.40
2018-01-20T07:25:14.924Z,4.35
2018-01-20T07:27:08.248Z,4.35
2018-01-20T07:28:08.214Z,4.17
2018-01-20T07:30:01.724Z,4.49
2018-01-20T07:31:01.551Z,4.44
2018-01-20T07:32:54.440Z,4.44
2018-01-20T07:33:54.541Z,4.50
2018-01-20T07:35:47.206Z,4.55
2018-01-20T07:36:47.153Z,4.53
2018-01-20T07:38:39.998Z,4.52
2018-01-20T07:39:39.969Z,4.66
2018-01-20T07:41:33.288Z,4.48
2018-01-20T07:42:33.308Z,4.49
2018-01-20T07:44:26.638Z,4.44
2018-01-20T07:45:26.601Z,4.59
2018-01-20T07:47:19.480Z,4.44
2018-01-20T07:48:19.423Z,4.45
2018-01-20T07:50:12.319Z,4.49
2018-01-20T07:51:12.217Z,4.52
2018-01-20T07:53:05.053Z,4.44
2018-01-20T07:54:05.013Z,4.50
2018-01-20T07:55:57.844Z,4.55
2018-01-20T07:56:57.813Z,4.59
2018-01-20T07:58:51.133Z,4.66
2018-01-20T07:59:51.108Z,4.73
2018-01-20T08:01:44.479Z,4.68
2018-01-20T08:02:44.396Z,4.75
2018-01-20T08:04:37.218Z,4.75
2018-01-20T08:05:37.194Z,4.68
2018-01-20T08:07:30.024Z,4.71
2018-01-20T08:08:29.991Z,4.74
2018-01-20T08:10:23.310Z,4.82
2018-01-20T08:11:23.288Z,4.78
2018-01-20T08:13:16.124Z,4.73
2018-01-20T08:14:16.088Z,4.77
2018-01-20T08:16:08.912Z,4.73
2018-01-20T08:17:08.882Z,4.75
2018-01-20T08:19:01.714Z,4.78
2018-01-20T08:20:01.673Z,4.89
2018-01-20T08:21:54.501Z,4.80
2018-01-20T08:22:54.472Z,4.92
2018-01-20T08:24:47.311Z,4.84
2018-01-20T08:25:47.266Z,4.90
2018-01-20T08:27:40.099Z,4.87
2018-01-20T08:28:40.066Z,4.89
2018-01-20T08:30:32.907Z,4.92
2018-01-20T08:31:32.869Z,4.93
2018-01-20T08:33:26.180Z,4.89
2018-01-20T08:34:26.156Z,5.00
2018-01-20T08:36:19.499Z,5.17
2018-01-20T08:37:19.459Z,5.10
2018-01-20T08:39:12.773Z,5.21
2018-01-20T08:40:12.747Z,5.17
2018-01-20T08:42:06.076Z,4.96
2018-01-20T08:43:06.036Z,5.11
2018-01-20T08:44:59.370Z,5.11
2018-01-20T08:45:59.332Z,5.15
2018-01-20T08:47:52.683Z,5.26
2018-01-20T08:48:52.635Z,5.41
2018-01-20T08:50:45.957Z,5.26
2018-01-20T08:51:45.931Z,5.32
2018-01-20T08:53:39.273Z,5.15
2018-01-20T08:54:39.233Z,5.21
2018-01-20T08:56:32.060Z,5.28
2018-01-20T08:57:32.025Z,5.35
2018-01-20T08:59:25.396Z,5.32
2018-01-20T09:00:25.360Z,5.41
2018-01-20T09:02:18.229Z,5.28
2018-01-20T09:03:18.151Z,5.44
2018-01-20T09:05:12.484Z,5.44
2018-01-20T09:06:12.445Z,5.48
2018-01-20T09:08:05.780Z,5.50
2018-01-20T09:09:05.755Z,5.43
2018-01-20T09:10:58.723Z,5.21
2018-01-20T09:11:58.562Z,5.14
2018-01-20T09:13:51.386Z,5.00
2018-01-20T09:14:51.357Z,4.92
2018-01-20T09:16:44.219Z,4.90
2018-01-20T09:17:44.169Z,4.82
2018-01-20T09:19:36.990Z,4.68
2018-01-20T09:20:36.969Z,4.77
2018-01-20T09:22:30.292Z,4.86
2018-01-20T09:23:30.256Z,4.80
2018-01-20T09:25:23.581Z,4.66
2018-01-20T09:26:23.553Z,4.59
2018-01-20T09:28:16.893Z,4.63
2018-01-20T09:29:16.851Z,4.73
2018-01-20T09:31:10.261Z,4.84
2018-01-20T09:32:10.234Z,4.73
2018-01-20T09:34:03.074Z,4.73
2018-01-20T09:35:03.042Z,4.74
2018-01-20T09:36:55.878Z,4.86
2018-01-20T09:37:55.839Z,4.82
2018-01-20T09:39:48.676Z,4.87
2018-01-20T09:40:48.637Z,4.73
2018-01-20T09:42:41.458Z,4.71
2018-01-20T09:43:41.431Z,4.68
2018-01-20T09:45:39.882Z,4.84
2018-01-20T09:46:34.738Z,4.89
2018-01-20T09:48:28.065Z,4.96
2018-01-20T09:49:28.041Z,4.94
2018-01-20T09:51:20.877Z,4.87
2018-01-20T09:52:20.835Z,4.75
2018-01-20T09:54:14.154Z,4.93
2018-01-20T09:55:14.134Z,4.93
2018-01-20T09:57:07.532Z,4.96
2018-01-20T09:58:07.493Z,5.04
2018-01-20T10:00:00.955Z,5.10
2018-01-20T10:01:00.785Z,5.10
2018-01-20T10:02:54.129Z,5.05
2018-01-20T10:03:54.076Z,5.20
2018-01-20T10:05:47.400Z,5.33
2018-01-20T10:06:47.374Z,5.43
2018-01-20T10:08:40.703Z,5.21
2018-01-20T10:09:40.668Z,5.15
2018-01-20T10:11:34.053Z,5.17
2018-01-20T10:12:33.972Z,5.35
2018-01-20T10:14:27.343Z,5.33
2018-01-20T10:15:27.304Z,5.39
2018-01-20T10:17:20.633Z,5.46
2018-01-20T10:18:20.610Z,5.33
2018-01-20T10:20:13.941Z,5.44
2018-01-20T10:21:13.948Z,5.47
2018-01-20T10:23:07.241Z,5.54
2018-01-20T10:24:07.215Z,5.66
2018-01-20T10:26:00.561Z,5.64
2018-01-20T10:27:00.516Z,5.71
2018-01-20T10:28:53.854Z,5.86
2018-01-20T10:29:53.826Z,5.86
2018-01-20T10:31:47.170Z,5.83
2018-01-20T10:32:47.128Z,5.84
2018-01-20T10:34:40.474Z,5.84
2018-01-20T10:35:40.423Z,5.93
2018-01-20T10:37:33.783Z,5.83
2018-01-20T10:38:33.728Z,5.94
2018-01-20T10:40:27.252Z,5.98
2018-01-20T10:41:27.226Z,6.08
2018-01-20T10:43:20.575Z,6.05
2018-01-20T10:44:20.524Z,5.97
2018-01-20T10:46:14.848Z,6.09
2018-01-20T10:47:14.828Z,6.07
2018-01-20T10:49:08.166Z,6.19
2018-01-20T10:50:08.137Z,6.17
2018-01-20T10:52:01.457Z,5.90
2018-01-20T10:53:01.485Z,5.93
2018-01-20T10:54:55.675Z,6.09
2018-01-20T10:55:55.636Z,6.28
2018-01-20T10:57:49.943Z,6.17
2018-01-20T10:58:49.303Z,6.17
2018-01-20T11:00:42.041Z,6.30
2018-01-20T11:01:41.820Z,6.28
2018-01-20T11:03:35.136Z,6.16
2018-01-20T11:04:35.131Z,6.17
2018-01-20T11:06:29.771Z,6.24
2018-01-20T11:07:28.450Z,6.27
2018-01-20T11:09:21.775Z,6.41
2018-01-20T11:10:22.346Z,6.36
2018-01-20T11:12:15.084Z,6.36
2018-01-20T11:13:15.046Z,6.20
2018-01-20T11:15:08.362Z,6.14
2018-01-20T11:16:08.344Z,6.24
2018-01-20T11:18:01.740Z,6.30
2018-01-20T11:19:01.856Z,6.28
2018-01-20T11:20:55.037Z,6.36
2018-01-20T11:21:55.062Z,6.52
2018-01-20T11:23:48.348Z,6.48
2018-01-20T11:24:48.438Z,6.48
2018-01-20T11:26:41.622Z,6.48
2018-01-20T11:27:41.603Z,6.49
2018-01-20T11:29:34.952Z,6.60
2018-01-20T11:30:34.976Z,6.69
2018-01-20T11:32:28.337Z,6.24
2018-01-20T11:33:28.267Z,6.30
2018-01-20T11:35:21.597Z,6.56
2018-01-20T11:36:21.557Z,6.63
2018-01-20T11:38:15.223Z,6.56
2018-01-20T11:39:15.186Z,6.69
2018-01-20T11:41:08.554Z,6.63
2018-01-20T11:42:08.493Z,6.62
2018-01-20T11:44:01.817Z,6.74
2018-01-20T11:45:01.791Z,6.57
2018-01-20T11:46:55.224Z,6.51
2018-01-20T11:47:55.126Z,6.64
2018-01-20T11:49:48.423Z,6.52
2018-01-20T11:50:48.407Z,6.63
2018-01-20T11:52:41.873Z,6.51
2018-01-20T11:53:41.745Z,6.56
2018-01-20T11:55:35.111Z,6.60
2018-01-20T11:56:35.087Z,6.51
2018-01-20T11:58:28.444Z,6.66
2018-01-20T11:59:28.429Z,6.79
2018-01-20T12:01:21.757Z,6.69
2018-01-20T12:02:21.707Z,6.84
2018-01-20T12:04:15.071Z,6.75
2018-01-20T12:05:15.020Z,6.79
2018-01-20T12:07:08.361Z,6.77
2018-01-20T12:08:08.347Z,6.84
2018-01-20T12:10:01.685Z,6.79
2018-01-20T12:11:01.633Z,6.81
2018-01-20T12:12:54.971Z,6.87
2018-01-20T12:13:54.976Z,6.87
2018-01-20T12:15:48.288Z,7.14
2018-01-20T12:16:48.243Z,7.28
2018-01-20T12:18:41.588Z,6.95
2018-01-20T12:19:41.568Z,7.17
2018-01-20T12:21:34.932Z,7.18
2018-01-20T12:22:34.878Z,6.96
2018-01-20T12:24:28.204Z,7.15
2018-01-20T12:25:28.182Z,7.28
2018-01-20T12:27:21.512Z,7.43
2018-01-20T12:28:21.482Z,7.48
2018-01-20T12:30:14.806Z,7.51
2018-01-20T12:31:14.772Z,7.61
2018-01-20T12:33:08.127Z,7.61
2018-01-20T12:34:08.073Z,7.61
2018-01-20T12:36:01.397Z,7.61
2018-01-20T12:37:01.377Z,7.72
2018-01-20T12:38:54.715Z,7.72
2018-01-20T12:39:54.678Z,7.76
2018-01-20T12:41:48.002Z,7.82
2018-01-20T12:42:47.998Z,7.82
2018-01-20T12:44:41.324Z,7.66
2018-01-20T12:45:41.276Z,7.60
2018-01-20T12:47:34.625Z,7.82
2018-01-20T12:48:34.604Z,7.82
2018-01-20T12:50:27.929Z,7.83
2018-01-20T12:51:27.899Z,7.93
2018-01-20T12:53:22.221Z,7.69
2018-01-20T12:54:22.188Z,7.83
2018-01-20T12:56:15.537Z,8.05
2018-01-20T12:57:15.508Z,7.97
2018-01-20T12:59:08.831Z,7.88
2018-01-20T13:00:08.798Z,7.87
2018-01-20T13:02:03.151Z,7.85
2018-01-20T13:03:03.106Z,7.94
2018-01-20T13:04:56.452Z,7.82
2018-01-20T13:05:56.405Z,8.08
2018-01-20T13:07:49.780Z,8.01
2018-01-20T13:08:49.743Z,7.77
2018-01-20T13:10:43.056Z,7.82
2018-01-20T13:11:43.035Z,7.85
2018-01-20T13:13:36.379Z,7.88
2018-01-20T13:14:36.346Z,7.85
2018-01-20T13:16:29.679Z,7.94
2018-01-20T13:17:29.654Z,7.70
2018-01-20T13:19:23.046Z,7.69
2018-01-20T13:20:22.961Z,7.70
2018-01-20T13:22:16.309Z,7.83
2018-01-20T13:23:16.270Z,7.73
2018-01-20T13:25:09.633Z,7.80
2018-01-20T13:26:09.587Z,7.72
2018-01-20T13:28:02.930Z,7.63
2018-01-20T13:29:02.877Z,7.72
2018-01-20T13:30:56.650Z,7.61
2018-01-20T13:31:56.588Z,7.54
2018-01-20T13:33:49.935Z,7.51
2018-01-20T13:34:49.914Z,7.60
2018-01-20T13:36:43.255Z,7.66
2018-01-20T13:37:43.205Z,7.57
2018-01-20T13:39:36.690Z,7.63
2018-01-20T13:40:36.568Z,7.66
2018-01-20T13:42:29.911Z,7.50
2018-01-20T13:43:29.871Z,7.58
2018-01-20T13:45:23.295Z,7.47
2018-01-20T13:46:23.272Z,7.51
2018-01-20T13:48:16.607Z,7.50
2018-01-20T13:49:16.575Z,7.56
2018-01-20T13:51:09.898Z,7.58
2018-01-20T13:52:09.894Z,7.66
2018-01-20T13:54:03.215Z,7.51
2018-01-20T13:55:03.184Z,7.50
2018-01-20T13:56:56.498Z,7.39
2018-01-20T13:57:56.478Z,7.50
2018-01-20T13:59:50.420Z,7.39
2018-01-20T14:00:49.791Z,7.42
2018-01-20T14:02:43.117Z,7.60
2018-01-20T14:03:43.091Z,7.61
2018-01-20T14:05:37.184Z,7.66
2018-01-20T14:06:37.119Z,7.67
2018-01-20T14:08:30.481Z,7.67
2018-01-20T14:09:30.455Z,7.51
2018-01-20T14:11:23.811Z,7.57
2018-01-20T14:12:23.751Z,7.50
2018-01-20T14:14:17.136Z,7.32
2018-01-20T14:15:17.127Z,7.33
2018-01-20T14:17:10.513Z,7.35
2018-01-20T14:18:10.414Z,7.50
2018-01-20T14:20:03.749Z,7.36
2018-01-20T14:21:03.747Z,7.25
2018-01-20T14:22:57.075Z,7.47
2018-01-20T14:23:57.036Z,7.51
2018-01-20T14:25:50.371Z,7.50
2018-01-20T14:26:50.349Z,7.48
2018-01-20T14:28:44.057Z,7.53
2018-01-20T14:29:44.403Z,7.70
2018-01-20T14:31:36.998Z,7.67
2018-01-20T14:32:36.953Z,7.70
2018-01-20T14:34:30.307Z,7.73
2018-01-20T14:35:30.280Z,7.80
2018-01-20T14:37:23.598Z,7.61
2018-01-20T14:38:23.932Z,7.67
2018-01-20T14:40:16.912Z,7.69
2018-01-20T14:41:17.085Z,7.63
2018-01-20T14:43:10.198Z,7.76
2018-01-20T14:44:10.174Z,7.73
2018-01-20T14:46:04.526Z,7.63
2018-01-20T14:47:04.498Z,7.47
2018-01-20T14:48:57.830Z,7.42
2018-01-20T14:49:57.794Z,7.60
2018-01-20T14:51:51.121Z,7.54
2018-01-20T14:52:51.099Z,7.57
2018-01-20T14:54:44.711Z,7.60
2018-01-20T14:55:44.404Z,7.56
2018-01-20T14:57:37.750Z,7.61
2018-01-20T14:58:37.717Z,7.60
2018-01-20T15:00:31.062Z,7.48
2018-01-20T15:01:31.028Z,7.43
2018-01-20T15:03:24.361Z,7.35
2018-01-20T15:04:24.315Z,7.25
2018-01-20T15:06:17.632Z,7.48
2018-01-20T15:07:17.615Z,7.36
2018-01-20T15:09:10.934Z,7.48
2018-01-20T15:10:10.895Z,7.36
2018-01-20T15:12:04.227Z,7.28
2018-01-20T15:13:04.218Z,7.20
2018-01-20T15:14:57.564Z,7.05
2018-01-20T15:15:57.518Z,7.13
2018-01-20T15:17:50.845Z,7.11
2018-01-20T15:18:50.826Z,7.13
2018-01-20T15:20:44.167Z,6.93
2018-01-20T15:21:44.125Z,6.84
2018-01-20T15:23:37.444Z,7.10
2018-01-20T15:24:37.432Z,6.99
2018-01-20T15:26:30.781Z,6.96
2018-01-20T15:27:30.729Z,7.07
2018-01-20T15:29:24.054Z,6.96
2018-01-20T15:30:24.026Z,7.06
2018-01-20T15:32:17.375Z,6.84
2018-01-20T15:33:17.334Z,6.99
2018-01-20T15:35:11.687Z,7.03
2018-01-20T15:36:11.644Z,6.95
2018-01-20T15:38:04.975Z,7.14
2018-01-20T15:39:04.935Z,7.13
2018-01-20T15:40:58.491Z,7.23
2018-01-20T15:41:58.245Z,7.02
2018-01-20T15:43:51.575Z,6.99
2018-01-20T15:44:51.581Z,6.97
2018-01-20T15:46:44.882Z,6.85
2018-01-20T15:47:44.849Z,6.85
2018-01-20T15:49:38.192Z,6.84
2018-01-20T15:50:38.155Z,7.02
2018-01-20T15:52:31.489Z,6.93
2018-01-20T15:53:31.460Z,6.79
2018-01-20T15:55:24.811Z,6.88
2018-01-20T15:56:24.763Z,6.84
2018-01-20T15:58:18.112Z,6.87
2018-01-20T15:59:18.074Z,6.77
2018-01-20T16:01:11.416Z,6.72
2018-01-20T16:02:11.396Z,6.49
2018-01-20T16:04:04.718Z,6.64
2018-01-20T16:05:04.703Z,6.59
2018-01-20T16:06:58.026Z,6.60
2018-01-20T16:07:57.990Z,6.62
2018-01-20T16:09:51.305Z,6.63
2018-01-20T16:10:51.308Z,6.52
2018-01-20T16:12:44.641Z,6.46
2018-01-20T16:13:44.590Z,6.45
2018-01-20T16:15:37.925Z,6.64
2018-01-20T16:16:37.930Z,6.69
2018-01-20T16:18:31.237Z,6.64
2018-01-20T16:19:31.197Z,6.60
2018-01-20T16:21:24.534Z,6.48
2018-01-20T16:22:24.513Z,6.57
2018-01-20T16:24:17.855Z,6.63
2018-01-20T16:25:17.813Z,6.62
2018-01-20T16:27:11.137Z,6.79
2018-01-20T16:28:11.126Z,6.79
2018-01-20T16:30:04.470Z,6.69
2018-01-20T16:31:04.432Z,6.59
2018-01-20T16:32:57.741Z,6.63
2018-01-20T16:33:57.770Z,6.51
2018-01-20T16:35:51.078Z,6.57
2018-01-20T16:36:51.055Z,6.70
2018-01-20T16:38:44.368Z,6.62
2018-01-20T16:39:44.342Z,6.60
2018-01-20T16:41:37.672Z,6.54
2018-01-20T16:42:37.638Z,6.57
2018-01-20T16:44:30.464Z,6.28
2018-01-20T16:45:30.440Z,6.39
2018-01-20T16:47:23.806Z,6.38
2018-01-20T16:48:23.756Z,6.46
2018-01-20T16:50:17.191Z,6.51
2018-01-20T16:51:17.068Z,6.41
2018-01-20T16:53:10.414Z,6.36
2018-01-20T16:54:10.368Z,6.33
2018-01-20T16:56:03.685Z,6.49
2018-01-20T16:57:03.674Z,6.52
2018-01-20T16:58:57.011Z,6.45
2018-01-20T16:59:56.969Z,6.48
2018-01-20T17:01:51.178Z,6.51
2018-01-20T17:02:51.155Z,6.60
2018-01-20T17:04:44.492Z,6.51
2018-01-20T17:05:44.454Z,6.56
2018-01-20T17:07:37.277Z,6.36
2018-01-20T17:08:37.303Z,6.48
2018-01-20T17:10:30.610Z,6.41
2018-01-20T17:11:30.575Z,6.52
2018-01-20T17:13:23.891Z,6.44
2018-01-20T17:14:23.869Z,6.41
2018-01-20T17:16:16.734Z,6.36
2018-01-20T17:17:16.701Z,6.38
2018-01-20T17:19:10.123Z,6.30
2018-01-20T17:20:09.981Z,6.45
2018-01-20T17:22:03.320Z,6.56
2018-01-20T17:23:03.281Z,6.56
2018-01-20T17:24:56.613Z,6.49
2018-01-20T17:25:56.580Z,6.46
2018-01-20T17:27:49.432Z,6.44
2018-01-20T17:28:49.386Z,6.35
2018-01-20T17:30:42.724Z,6.52
2018-01-20T17:31:42.692Z,6.63
2018-01-20T17:33:36.025Z,6.35
2018-01-20T17:34:35.981Z,6.52
2018-01-20T17:36:29.320Z,6.64
2018-01-20T17:37:29.293Z,6.41
2018-01-20T17:39:22.631Z,6.31
2018-01-20T17:40:22.592Z,6.33
2018-01-20T17:42:15.951Z,6.19
2018-01-20T17:43:15.885Z,6.27
2018-01-20T17:45:09.262Z,6.20
2018-01-20T17:46:09.203Z,6.38
2018-01-20T17:48:02.532Z,6.17
2018-01-20T17:49:02.501Z,6.39
2018-01-20T17:50:55.855Z,6.26
2018-01-20T17:51:55.819Z,6.41
2018-01-20T17:53:49.146Z,6.46
2018-01-20T17:54:49.117Z,6.35
2018-01-20T17:56:42.466Z,6.44
2018-01-20T17:57:42.423Z,6.44
2018-01-20T17:59:35.744Z,6.33
2018-01-20T18:00:35.712Z,6.51
2018-01-20T18:02:29.053Z,6.64
2018-01-20T18:03:29.015Z,6.48
2018-01-20T18:05:22.333Z,6.45
2018-01-20T18:06:22.304Z,6.56
2018-01-20T18:08:15.653Z,6.57
2018-01-20T18:09:15.609Z,6.49
2018-01-20T18:11:08.937Z,6.48
2018-01-20T18:12:08.918Z,6.54
2018-01-20T18:14:02.385Z,6.63
2018-01-20T18:15:02.213Z,6.66
2018-01-20T18:16:55.550Z,6.60
2018-01-20T18:17:55.513Z,6.64
2018-01-20T18:19:48.860Z,6.59
2018-01-20T18:20:48.815Z,6.54
2018-01-20T18:22:42.159Z,6.59
2018-01-20T18:23:42.130Z,6.48
2018-01-20T18:25:35.462Z,6.56
2018-01-20T18:26:35.460Z,6.51
2018-01-20T18:28:28.948Z,6.48
2018-01-20T18:29:28.937Z,6.49
2018-01-20T18:31:22.607Z,6.52
2018-01-20T18:32:22.569Z,6.54
2018-01-20T18:34:16.638Z,6.39
2018-01-20T18:35:16.169Z,6.41
2018-01-20T18:37:09.635Z,6.35
2018-01-20T18:38:09.586Z,6.36
2018-01-20T18:40:03.276Z,6.27
2018-01-20T18:41:03.006Z,6.44
2018-01-20T18:42:56.891Z,6.41
2018-01-20T18:43:57.216Z,6.52
2018-01-20T18:45:49.638Z,6.46
2018-01-20T18:46:49.636Z,6.52
2018-01-20T18:48:43.020Z,6.49
2018-01-20T18:49:42.944Z,6.63
2018-01-20T18:51:36.281Z,6.57
2018-01-20T18:52:36.239Z,6.63
2018-01-20T18:54:29.581Z,6.78
2018-01-20T18:55:29.533Z,6.60
2018-01-20T18:57:22.364Z,6.57
2018-01-20T18:58:22.344Z,6.45
2018-01-20T19:00:15.703Z,6.52
2018-01-20T19:01:15.717Z,6.63
2018-01-20T19:03:08.970Z,6.64
2018-01-20T19:04:08.944Z,6.56
2018-01-20T19:06:02.293Z,6.49
2018-01-20T19:07:02.255Z,6.45
2018-01-20T19:08:55.579Z,6.52
2018-01-20T19:09:55.549Z,6.70
2018-01-20T19:11:48.908Z,6.69